Data for 01/24/2011

Time Sea-Level Adjusted Pressure Absolute Pressure Temperature Relative Humidity Dew Point   
(mb) (inHg) (mb) (inHg) (C) (F) (%) (C) (F)
00:05 1021 30.15 850 25.1 -1.8 28.8 88 -3.5 25.8
00:10 1021 30.15 850 25.1 -1.6 29.1 87 -3.5 25.8
00:15 1021 30.15 850 25.1 -1.7 29 87 -3.5 25.6
00:20 1021 30.15 850 25.1 -1.9 28.5 87 -3.8 25.2
00:25 1021 30.15 850 25.1 -2 28.4 87 -3.9 24.9
00:30 1021 30.15 850 25.1 -2 28.5 87 -3.9 25
00:35 1021 30.15 850 25.1 -2.1 28.2 87 -3.9 24.9
00:40 1021 30.15 850 25.1 -2.2 28 87 -4.2 24.5
00:45 1021 30.15 850 25.1 -2.2 28.1 85 -4.4 24.1
00:50 1021 30.15 850 25.1 -2.3 27.8 86 -4.4 24.1
00:55 1021 30.15 850 25.1 -2.4 27.7 86 -4.5 23.9
01:00 1021 30.15 850 25.1 -2.2 28.1 85 -4.4 24
01:05 1021 30.15 850 25.1 -2.3 27.9 84 -4.6 23.8
01:10 1021 30.15 850 25.1 -2.1 28.3 83 -4.6 23.8
01:15 1021 30.15 850 25.1 -1.9 28.5 83 -4.4 24
01:20 1021 30.15 851 25.13 -1.8 28.7 83 -4.4 24
01:25 1021 30.15 851 25.13 -1.7 28.9 81 -4.6 23.8
01:30 1021 30.15 851 25.13 -1.5 29.3 80 -4.6 23.8
01:35 1021 30.15 851 25.13 -1.4 29.5 80 -4.4 24
01:40 1021 30.15 851 25.13 -1.4 29.4 80 -4.4 24
01:45 1021 30.15 851 25.13 -1.4 29.5 80 -4.4 24.2
01:50 1021 30.15 851 25.13 -1.4 29.5 81 -4.3 24.3
01:55 1021 30.15 851 25.13 -1.4 29.4 80 -4.4 24
02:00 1021 30.15 851 25.13 -1.2 29.8 79 -4.4 24
02:05 1021 30.15 851 25.13 -1.2 29.9 77 -4.7 23.5
02:10 1022 30.18 851 25.13 -1.1 30 78 -4.5 23.9
02:15 1022 30.18 851 25.13 -1 30.2 77 -4.6 23.7
02:20 1022 30.18 851 25.13 -1.1 30 77 -4.6 23.8
02:25 1022 30.18 851 25.13 -1.3 29.7 78 -4.7 23.6
02:30 1022 30.18 851 25.13 -1.2 29.8 76 -4.9 23.2
02:35 1022 30.18 851 25.13 -1.1 30 77 -4.7 23.5
02:40 1022 30.18 851 25.13 -1.1 30 79 -4.3 24.3
02:45 1022 30.18 851 25.13 -1.2 29.8 78 -4.5 23.9
02:50 1022 30.18 851 25.13 -1.1 30 75 -5 23
02:55 1022 30.18 851 25.13 -1 30.2 77 -4.6 23.7
03:00 1022 30.18 851 25.13 -1.2 29.8 77 -4.8 23.4
03:05 1022 30.18 851 25.13 -1.3 29.6 76 -5.1 22.8
03:10 1022 30.18 851 25.13 -1.3 29.6 76 -5.1 22.8
03:15 1022 30.18 851 25.13 -1.3 29.6 75 -5.2 22.6
03:20 1022 30.18 851 25.13 -1.4 29.5 75 -5.3 22.5
03:25 1022 30.18 851 25.13 -1.5 29.2 74 -5.6 22
03:30 1022 30.18 851 25.13 -1.6 29.1 74 -5.7 21.8
03:35 1022 30.18 851 25.13 -1.5 29.4 73 -5.8 21.6
03:40 1022 30.18 851 25.13 -1.4 29.4 72 -5.8 21.6
03:45 1022 30.18 851 25.13 -1.3 29.6 72 -5.8 21.5
03:50 1022 30.18 851 25.13 -1.3 29.7 72 -5.7 21.7
03:55 1022 30.18 851 25.13 -1.4 29.5 71 -5.9 21.4
04:00 1022 30.18 851 25.13 -1.5 29.4 72 -5.9 21.4
04:05 1022 30.18 851 25.13 -1.4 29.4 72 -5.9 21.3
04:10 1022 30.18 851 25.13 -1.6 29.1 72 -6.1 21
04:15 1022 30.18 851 25.13 -1.9 28.6 71 -6.5 20.4
04:20 1022 30.18 851 25.13 -2.1 28.1 70 -6.9 19.5
04:25 1022 30.18 851 25.13 -2.3 27.9 69 -7.1 19.2
04:30 1022 30.18 851 25.13 -2.4 27.8 69 -7.3 18.8
04:35 1022 30.18 851 25.13 -2.4 27.6 69 -7.4 18.6
04:40 1022 30.18 851 25.13 -2.5 27.5 69 -7.5 18.5
04:45 1022 30.18 851 25.13 -2.6 27.3 68 -7.7 18.1
04:50 1022 30.18 851 25.13 -2.5 27.5 67 -7.9 17.8
04:55 1022 30.18 851 25.13 -2.4 27.7 66 -7.8 17.9
05:00 1022 30.18 851 25.13 -2.4 27.7 67 -7.8 18
05:05 1022 30.18 851 25.13 -2.4 27.7 67 -7.8 18
05:10 1022 30.18 851 25.13 -2.7 27.2 68 -7.7 18.2
05:15 1022 30.18 851 25.13 -3 26.6 70 -7.7 18.2
05:20 1022 30.18 851 25.13 -3.3 26.1 71 -7.8 18
05:25 1022 30.18 851 25.13 -3.3 26.1 71 -7.7 18.1
05:30 1022 30.18 851 25.13 -3.2 26.2 70 -7.9 17.7
05:35 1022 30.18 851 25.13 -3.2 26.2 70 -8 17.6
05:40 1022 30.18 851 25.13 -3.4 25.9 71 -8 17.6
05:45 1022 30.18 851 25.13 -3.4 25.9 70 -8.1 17.5
05:50 1022 30.18 851 25.13 -3.1 26.3 68 -8.3 17
05:55 1022 30.18 851 25.13 -2.8 26.9 67 -8.1 17.4
06:00 1022 30.18 851 25.13 -2.8 26.9 66 -8.2 17.2
06:05 1022 30.18 851 25.13 -2.9 26.8 67 -8.1 17.4
06:10 1022 30.18 851 25.13 -3.1 26.5 68 -8.1 17.4
06:15 1022 30.18 851 25.13 -3.4 25.9 71 -7.9 17.8
06:20 1022 30.18 851 25.13 -4.2 24.5 76 -7.7 18.1
06:25 1022 30.18 851 25.13 -4.5 23.8 76 -8.2 17.2
06:30 1022 30.18 851 25.13 -4.8 23.4 76 -8.3 17
06:35 1022 30.18 851 25.13 -5 23.1 77 -8.3 17
06:40 1022 30.18 851 25.13 -5.1 22.8 78 -8.3 17
06:45 1022 30.18 851 25.13 -5.2 22.6 78 -8.5 16.7
06:50 1022 30.18 851 25.13 -5.4 22.3 79 -8.5 16.8
06:55 1022 30.18 851 25.13 -5.7 21.8 80 -8.6 16.4
07:00 1022 30.18 851 25.13 -5.3 22.4 76 -8.9 16
07:05 1022 30.18 851 25.13 -4.9 23.2 75 -8.8 16.2
07:10 1022 30.18 851 25.13 -4.9 23.1 74 -8.9 16
07:15 1022 30.18 851 25.13 -4.8 23.4 72 -9 15.7
07:20 1022 30.18 851 25.13 -4.8 23.3 72 -9.1 15.6
07:25 1022 30.18 851 25.13 -4.8 23.3 71 -9.3 15.2
07:30 1022 30.18 851 25.13 -4.6 23.7 71 -9.2 15.5
07:35 1022 30.18 851 25.13 -4.7 23.6 70 -9.3 15.2
07:40 1022 30.18 851 25.13 -4.7 23.5 70 -9.3 15.2
07:45 1022 30.18 851 25.13 -4.8 23.4 71 -9.3 15.3
07:50 1022 30.18 851 25.13 -4.9 23.2 71 -9.4 15.1
07:55 1022 30.18 851 25.13 -5.1 22.8 72 -9.5 14.9
08:00 1022 30.18 851 25.13 -5.2 22.6 71 -9.7 14.5
08:05 1022 30.18 851 25.13 -5.1 22.9 69 -9.9 14.3
08:10 1022 30.18 851 25.13 -4.9 23.2 68 -9.9 14.2
08:15 1022 30.18 851 25.13 -4.9 23.2 68 -10 14
08:20 1022 30.18 851 25.13 -4.6 23.8 65 -10.2 13.7
08:25 1022 30.18 851 25.13 -3.9 25 64 -9.8 14.3
08:30 1022 30.18 851 25.13 -3.8 25.1 63 -9.8 14.3
08:35 1022 30.18 851 25.13 -4 24.8 63 -10.1 13.8
08:40 1022 30.18 851 25.13 -4 24.9 62 -10.3 13.5
08:45 1022 30.18 851 25.13 -4 24.8 61 -10.4 13.2
08:50 1022 30.18 851 25.13 -3.4 25.9 56 -10.9 12.4
08:55 1022 30.18 851 25.13 -3 26.5 56 -10.6 12.9
09:00 1022 30.18 851 25.13 -2.8 26.9 57 -10.3 13.5
09:05 1022 30.18 851 25.13 -2.7 27.2 57 -10 14
09:10 1022 30.18 851 25.13 -2.4 27.7 54 -10.5 13.1
09:15 1022 30.18 851 25.13 -2.2 28.1 53 -10.5 13.1
09:20 1022 30.18 851 25.13 -2.7 27.2 54 -10.7 12.7
09:25 1022 30.18 851 25.13 -3.1 26.4 57 -10.5 13.1
09:30 1022 30.18 851 25.13 -2.4 27.6 53 -10.7 12.7
09:35 1022 30.18 851 25.13 -2.1 28.2 54 -10.3 13.5
09:40 1022 30.18 851 25.13 -2 28.3 54 -10.1 13.8
09:45 1022 30.18 851 25.13 -1.9 28.6 53 -10.3 13.5
09:50 1022 30.18 851 25.13 -1.7 28.9 51 -10.5 13
09:55 1022 30.18 851 25.13 -1.4 29.4 51 -10.3 13.4
10:00 1022 30.18 851 25.13 -0.9 30.4 47 -10.7 12.7
10:05 1022 30.18 851 25.13 -0.4 31.2 46 -10.8 12.5
10:10 1022 30.18 851 25.13 -0.1 31.8 45 -10.6 13
10:15 1022 30.18 851 25.13 -0.8 30.5 48 -10.4 13.2
10:20 1022 30.18 851 25.13 -0.3 31.5 45 -10.9 12.4
10:25 1022 30.18 851 25.13 0.4 32.6 44 -10.5 13.2
10:30 1022 30.18 851 25.13 -0.5 31.2 49 -9.9 14.1
10:35 1022 30.18 851 25.13 0.1 32.1 46 -10.2 13.6
10:40 1022 30.18 851 25.13 0.7 33.2 46 -9.8 14.4
10:45 1022 30.18 851 25.13 0.9 33.6 45 -9.9 14.2
10:50 1022 30.18 851 25.13 0.4 32.7 45 -10.1 13.7
10:55 1022 30.18 851 25.13 0.6 33 47 -9.6 14.8
11:00 1022 30.18 851 25.13 0.8 33.5 47 -9.4 15.2
11:05 1022 30.18 851 25.13 0.9 33.5 44 -10 14
11:10 1022 30.18 851 25.13 1.2 34.1 44 -9.7 14.5
11:15 1021 30.15 851 25.13 1.1 34.1 44 -9.8 14.4
11:20 1021 30.15 851 25.13 0.6 33.1 45 -9.9 14.2
11:25 1021 30.15 851 25.13 0.4 32.8 48 -9.3 15.2
11:30 1021 30.15 851 25.13 0.1 32.2 50 -9.2 15.4
11:35 1021 30.15 850 25.1 -0.2 31.7 61 -6.7 19.9
11:40 1021 30.15 850 25.1 -0.4 31.2 63 -6.7 20
11:45 1021 30.15 850 25.1 -0.5 31.2 64 -6.4 20.4
11:50 1021 30.15 850 25.1 -0.5 31 65 -6.3 20.7
11:55 1021 30.15 850 25.1 -0.2 31.6 63 -6.4 20.5
12:00 1021 30.15 850 25.1 0.2 32.3 64 -5.8 21.5
12:05 1021 30.15 850 25.1 0.5 33 62 -5.8 21.5
12:10 1021 30.15 850 25.1 0.9 33.5 61 -5.9 21.4
12:15 1021 30.15 850 25.1 1 33.8 61 -5.7 21.8
12:20 1021 30.15 850 25.1 0.8 33.4 64 -5.2 22.6
12:25 1021 30.15 850 25.1 0.5 32.9 63 -5.7 21.7
12:30 1021 30.15 850 25.1 0.8 33.4 59 -6.3 20.6
12:35 1020 30.12 850 25.1 1.2 34.2 58 -6.2 20.9
12:40 1020 30.12 850 25.1 1.1 34.1 58 -6.1 20.9
12:45 1020 30.12 849 25.07 1 33.7 60 -5.9 21.3
12:50 1020 30.12 849 25.07 0.6 33.1 61 -6 21.3
12:55 1020 30.12 849 25.07 0.9 33.6 59 -6.2 20.9
13:00 1020 30.12 849 25.07 0.8 33.5 58 -6.5 20.4